sensor_id;sensor_type;location;lat;lon;timestamp;pressure;altitude;pressure_sealevel;temperature;humidity
8160;BME280;27404;52.398;9.646;2023-06-14T00:00:05;100970.59;;;14.99;97.60
8160;BME280;27404;52.398;9.646;2023-06-14T00:02:32;100969.38;;;15.12;98.41
8160;BME280;27404;52.398;9.646;2023-06-14T00:04:58;100970.16;;;15.07;98.40
8160;BME280;27404;52.398;9.646;2023-06-14T00:07:36;100974.75;;;15.01;98.94
8160;BME280;27404;52.398;9.646;2023-06-14T00:10:03;100980.03;;;15.03;98.40
8160;BME280;27404;52.398;9.646;2023-06-14T00:12:30;100975.91;;;15.05;97.40
8160;BME280;27404;52.398;9.646;2023-06-14T00:14:56;100984.44;;;15.04;97.35
8160;BME280;27404;52.398;9.646;2023-06-14T00:17:22;100984.38;;;14.99;98.03
8160;BME280;27404;52.398;9.646;2023-06-14T00:19:48;100982.19;;;15.01;97.79
8160;BME280;27404;52.398;9.646;2023-06-14T00:22:13;100986.22;;;14.93;98.66
8160;BME280;27404;52.398;9.646;2023-06-14T00:24:39;100983.53;;;14.98;97.04
8160;BME280;27404;52.398;9.646;2023-06-14T00:27:04;100988.22;;;14.98;98.33
8160;BME280;27404;52.398;9.646;2023-06-14T00:29:30;100984.94;;;15.01;97.45
8160;BME280;27404;52.398;9.646;2023-06-14T00:31:56;100984.03;;;14.95;97.82
8160;BME280;27404;52.398;9.646;2023-06-14T00:34:21;100991.41;;;14.89;98.97
8160;BME280;27404;52.398;9.646;2023-06-14T00:36:47;100993.28;;;14.84;97.90
8160;BME280;27404;52.398;9.646;2023-06-14T00:39:12;100994.22;;;14.72;99.41
8160;BME280;27404;52.398;9.646;2023-06-14T00:41:39;100990.78;;;14.65;99.45
8160;BME280;27404;52.398;9.646;2023-06-14T00:44:05;100993.56;;;14.65;99.45
8160;BME280;27404;52.398;9.646;2023-06-14T00:46:30;100997.63;;;14.62;99.40
8160;BME280;27404;52.398;9.646;2023-06-14T00:48:56;100995.38;;;14.59;100.00
8160;BME280;27404;52.398;9.646;2023-06-14T00:51:23;100999.75;;;14.55;100.00
8160;BME280;27404;52.398;9.646;2023-06-14T00:53:50;100996.41;;;14.53;100.00
8160;BME280;27404;52.398;9.646;2023-06-14T00:56:16;100992.50;;;14.49;100.00
8160;BME280;27404;52.398;9.646;2023-06-14T00:58:42;100989.03;;;14.36;100.00
8160;BME280;27404;52.398;9.646;2023-06-14T01:01:08;101003.03;;;14.35;100.00
8160;BME280;27404;52.398;9.646;2023-06-14T01:03:33;101009.69;;;14.39;100.00
8160;BME280;27404;52.398;9.646;2023-06-14T01:06:15;101000.34;;;14.40;100.00
8160;BME280;27404;52.398;9.646;2023-06-14T01:09:03;100996.69;;;14.34;100.00
8160;BME280;27404;52.398;9.646;2023-06-14T01:11:35;101001.34;;;14.34;100.00
8160;BME280;27404;52.398;9.646;2023-06-14T01:14:03;101006.03;;;14.33;100.00
8160;BME280;27404;52.398;9.646;2023-06-14T01:16:29;101008.28;;;14.36;100.00
8160;BME280;27404;52.398;9.646;2023-06-14T01:18:56;101003.69;;;14.42;100.00
8160;BME280;27404;52.398;9.646;2023-06-14T01:21:24;101000.34;;;14.40;100.00
8160;BME280;27404;52.398;9.646;2023-06-14T01:23:51;100993.69;;;14.36;100.00
8160;BME280;27404;52.398;9.646;2023-06-14T01:26:19;100997.78;;;14.33;100.00
8160;BME280;27404;52.398;9.646;2023-06-14T01:28:45;101007.81;;;14.23;100.00
8160;BME280;27404;52.398;9.646;2023-06-14T01:31:16;101007.53;;;14.24;100.00
8160;BME280;27404;52.398;9.646;2023-06-14T01:33:43;101005.06;;;14.23;100.00
8160;BME280;27404;52.398;9.646;2023-06-14T01:36:09;101011.56;;;14.16;100.00
8160;BME280;27404;52.398;9.646;2023-06-14T01:38:36;101010.81;;;14.04;100.00
8160;BME280;27404;52.398;9.646;2023-06-14T01:41:03;101007.78;;;14.05;100.00
8160;BME280;27404;52.398;9.646;2023-06-14T01:43:33;101011.63;;;14.04;100.00
8160;BME280;27404;52.398;9.646;2023-06-14T01:46:00;101006.31;;;13.98;100.00
8160;BME280;27404;52.398;9.646;2023-06-14T01:48:26;101006.31;;;13.98;100.00
8160;BME280;27404;52.398;9.646;2023-06-14T01:50:52;101008.56;;;13.84;100.00
8160;BME280;27404;52.398;9.646;2023-06-14T01:53:18;101005.31;;;13.87;100.00
8160;BME280;27404;52.398;9.646;2023-06-14T01:55:43;101002.69;;;13.80;100.00
8160;BME280;27404;52.398;9.646;2023-06-14T01:58:10;101004.88;;;13.78;100.00
8160;BME280;27404;52.398;9.646;2023-06-14T02:00:36;101009.34;;;13.67;100.00
8160;BME280;27404;52.398;9.646;2023-06-14T02:03:01;101009.00;;;13.63;100.00
8160;BME280;27404;52.398;9.646;2023-06-14T02:05:29;101011.09;;;13.56;100.00
8160;BME280;27404;52.398;9.646;2023-06-14T02:07:55;101006.31;;;13.52;100.00
8160;BME280;27404;52.398;9.646;2023-06-14T02:10:21;101007.16;;;13.52;100.00
8160;BME280;27404;52.398;9.646;2023-06-14T02:12:46;101006.13;;;13.41;100.00
8160;BME280;27404;52.398;9.646;2023-06-14T02:15:12;101005.91;;;13.43;100.00
8160;BME280;27404;52.398;9.646;2023-06-14T02:17:47;101010.78;;;13.41;100.00
8160;BME280;27404;52.398;9.646;2023-06-14T02:20:14;101015.09;;;13.37;100.00
8160;BME280;27404;52.398;9.646;2023-06-14T02:22:40;101008.75;;;13.36;100.00
8160;BME280;27404;52.398;9.646;2023-06-14T02:25:06;101018.97;;;13.24;100.00
8160;BME280;27404;52.398;9.646;2023-06-14T02:27:32;101013.75;;;13.10;100.00
8160;BME280;27404;52.398;9.646;2023-06-14T02:29:58;101020.66;;;13.13;100.00
8160;BME280;27404;52.398;9.646;2023-06-14T02:32:24;101018.28;;;13.16;100.00
8160;BME280;27404;52.398;9.646;2023-06-14T02:34:49;101025.75;;;13.21;100.00
8160;BME280;27404;52.398;9.646;2023-06-14T02:37:16;101013.59;;;13.17;100.00
8160;BME280;27404;52.398;9.646;2023-06-14T02:39:41;101024.47;;;13.12;100.00
8160;BME280;27404;52.398;9.646;2023-06-14T02:42:07;101023.16;;;13.14;100.00
8160;BME280;27404;52.398;9.646;2023-06-14T02:44:34;101018.66;;;13.08;100.00
8160;BME280;27404;52.398;9.646;2023-06-14T02:47:01;101028.66;;;13.02;100.00
8160;BME280;27404;52.398;9.646;2023-06-14T02:49:26;101030.81;;;13.00;100.00
8160;BME280;27404;52.398;9.646;2023-06-14T02:51:52;101033.44;;;12.95;100.00
8160;BME280;27404;52.398;9.646;2023-06-14T02:54:17;101029.88;;;12.95;100.00
8160;BME280;27404;52.398;9.646;2023-06-14T02:56:43;101030.72;;;12.95;100.00
8160;BME280;27404;52.398;9.646;2023-06-14T02:59:09;101037.06;;;12.84;100.00
8160;BME280;27404;52.398;9.646;2023-06-14T03:01:34;101041.00;;;12.76;100.00
8160;BME280;27404;52.398;9.646;2023-06-14T03:04:01;101045.53;;;12.82;100.00
8160;BME280;27404;52.398;9.646;2023-06-14T03:06:29;101046.00;;;12.79;100.00
8160;BME280;27404;52.398;9.646;2023-06-14T03:08:59;101051.63;;;12.72;100.00
8160;BME280;27404;52.398;9.646;2023-06-14T03:11:29;101049.72;;;12.73;100.00
8160;BME280;27404;52.398;9.646;2023-06-14T03:13:54;101054.13;;;12.86;100.00
8160;BME280;27404;52.398;9.646;2023-06-14T03:16:21;101046.88;;;12.80;100.00
8160;BME280;27404;52.398;9.646;2023-06-14T03:18:51;101055.19;;;12.73;100.00
8160;BME280;27404;52.398;9.646;2023-06-14T03:21:18;101059.28;;;12.58;100.00
8160;BME280;27404;52.398;9.646;2023-06-14T03:23:44;101063.91;;;12.58;100.00
8160;BME280;27404;52.398;9.646;2023-06-14T03:26:10;101063.91;;;12.58;100.00
8160;BME280;27404;52.398;9.646;2023-06-14T03:28:44;101075.75;;;12.58;100.00
8160;BME280;27404;52.398;9.646;2023-06-14T03:31:10;101071.81;;;12.54;100.00
8160;BME280;27404;52.398;9.646;2023-06-14T03:33:36;101072.63;;;12.67;100.00
8160;BME280;27404;52.398;9.646;2023-06-14T03:36:02;101076.31;;;12.61;100.00
8160;BME280;27404;52.398;9.646;2023-06-14T03:38:28;101068.47;;;12.64;100.00
8160;BME280;27404;52.398;9.646;2023-06-14T03:40:53;101066.53;;;12.65;100.00
8160;BME280;27404;52.398;9.646;2023-06-14T03:43:19;101076.44;;;12.78;100.00
8160;BME280;27404;52.398;9.646;2023-06-14T03:45:44;101075.84;;;12.76;100.00
8160;BME280;27404;52.398;9.646;2023-06-14T03:48:10;101072.13;;;12.70;100.00
8160;BME280;27404;52.398;9.646;2023-06-14T03:50:36;101084.78;;;12.83;100.00
8160;BME280;27404;52.398;9.646;2023-06-14T03:53:03;101085.03;;;12.81;100.00
8160;BME280;27404;52.398;9.646;2023-06-14T03:55:29;101081.31;;;12.87;100.00
8160;BME280;27404;52.398;9.646;2023-06-14T03:57:56;101081.91;;;12.89;100.00
8160;BME280;27404;52.398;9.646;2023-06-14T04:00:22;101078.69;;;12.93;100.00
8160;BME280;27404;52.398;9.646;2023-06-14T04:02:48;101078.22;;;12.96;100.00
8160;BME280;27404;52.398;9.646;2023-06-14T04:05:14;101083.44;;;12.97;100.00
8160;BME280;27404;52.398;9.646;2023-06-14T04:07:42;101090.97;;;13.02;100.00
8160;BME280;27404;52.398;9.646;2023-06-14T04:10:10;101091.31;;;13.17;100.00
8160;BME280;27404;52.398;9.646;2023-06-14T04:12:36;101097.19;;;13.38;100.00
8160;BME280;27404;52.398;9.646;2023-06-14T04:15:02;101102.38;;;15.34;100.00
8160;BME280;27404;52.398;9.646;2023-06-14T04:17:28;101106.47;;;17.91;98.75
8160;BME280;27404;52.398;9.646;2023-06-14T04:19:53;101110.91;;;20.17;83.26
8160;BME280;27404;52.398;9.646;2023-06-14T04:22:19;101110.34;;;21.76;71.40
8160;BME280;27404;52.398;9.646;2023-06-14T04:24:44;101120.25;;;22.87;64.50
8160;BME280;27404;52.398;9.646;2023-06-14T04:27:10;101124.22;;;23.14;63.54
8160;BME280;27404;52.398;9.646;2023-06-14T04:29:35;101126.81;;;24.03;58.57
8160;BME280;27404;52.398;9.646;2023-06-14T04:32:01;101127.22;;;25.19;53.94
8160;BME280;27404;52.398;9.646;2023-06-14T04:34:27;101117.16;;;26.02;50.91
8160;BME280;27404;52.398;9.646;2023-06-14T04:36:58;101126.06;;;26.04;48.00
8160;BME280;27404;52.398;9.646;2023-06-14T04:39:25;101128.16;;;25.54;48.10
8160;BME280;27404;52.398;9.646;2023-06-14T04:41:51;101138.41;;;27.51;43.60
8160;BME280;27404;52.398;9.646;2023-06-14T04:44:18;101135.59;;;26.65;42.67
8160;BME280;27404;52.398;9.646;2023-06-14T04:46:45;101139.84;;;26.80;42.79
8160;BME280;27404;52.398;9.646;2023-06-14T04:49:20;101146.88;;;26.21;44.20
8160;BME280;27404;52.398;9.646;2023-06-14T04:51:45;101152.28;;;26.43;44.00
8160;BME280;27404;52.398;9.646;2023-06-14T04:54:12;101151.47;;;27.08;43.52
8160;BME280;27404;52.398;9.646;2023-06-14T04:56:41;101158.41;;;28.22;41.13
8160;BME280;27404;52.398;9.646;2023-06-14T04:59:11;101164.56;;;28.70;39.04
8160;BME280;27404;52.398;9.646;2023-06-14T05:01:38;101159.19;;;27.20;40.46
8160;BME280;27404;52.398;9.646;2023-06-14T05:04:03;101157.59;;;27.79;38.75
8160;BME280;27404;52.398;9.646;2023-06-14T05:06:30;101152.22;;;26.79;41.84
8160;BME280;27404;52.398;9.646;2023-06-14T05:08:56;101163.50;;;28.96;37.68
8160;BME280;27404;52.398;9.646;2023-06-14T05:11:22;101162.34;;;29.72;35.25
8160;BME280;27404;52.398;9.646;2023-06-14T05:13:49;101165.69;;;28.57;36.62
8160;BME280;27404;52.398;9.646;2023-06-14T05:16:15;101161.38;;;29.18;35.80
8160;BME280;27404;52.398;9.646;2023-06-14T05:18:44;101169.75;;;27.83;38.43
8160;BME280;27404;52.398;9.646;2023-06-14T05:21:11;101169.63;;;28.01;38.72
8160;BME280;27404;52.398;9.646;2023-06-14T05:23:36;101169.97;;;29.71;35.53
8160;BME280;27404;52.398;9.646;2023-06-14T05:26:02;101175.38;;;30.58;33.16
8160;BME280;27404;52.398;9.646;2023-06-14T05:28:29;101183.63;;;32.51;30.76
8160;BME280;27404;52.398;9.646;2023-06-14T05:30:56;101182.13;;;32.37;29.89
8160;BME280;27404;52.398;9.646;2023-06-14T05:33:21;101182.69;;;31.87;30.10
8160;BME280;27404;52.398;9.646;2023-06-14T05:35:46;101189.81;;;31.81;29.95
8160;BME280;27404;52.398;9.646;2023-06-14T05:38:12;101186.13;;;31.45;30.64
8160;BME280;27404;52.398;9.646;2023-06-14T05:40:37;101180.53;;;30.56;30.73
8160;BME280;27404;52.398;9.646;2023-06-14T05:43:03;101185.56;;;29.31;32.85
8160;BME280;27404;52.398;9.646;2023-06-14T05:45:28;101184.59;;;29.02;33.21
8160;BME280;27404;52.398;9.646;2023-06-14T05:47:54;101183.47;;;28.15;35.48
8160;BME280;27404;52.398;9.646;2023-06-14T05:50:20;101182.56;;;31.00;32.35
8160;BME280;27404;52.398;9.646;2023-06-14T05:52:46;101186.47;;;31.75;30.61
8160;BME280;27404;52.398;9.646;2023-06-14T05:55:11;101196.47;;;30.77;31.60
8160;BME280;27404;52.398;9.646;2023-06-14T05:57:37;101187.38;;;31.48;30.04
8160;BME280;27404;52.398;9.646;2023-06-14T06:00:03;101186.28;;;30.60;30.20
8160;BME280;27404;52.398;9.646;2023-06-14T06:02:43;101189.97;;;30.60;30.80
8160;BME280;27404;52.398;9.646;2023-06-14T06:05:09;101191.22;;;29.44;33.13
8160;BME280;27404;52.398;9.646;2023-06-14T06:07:36;101194.28;;;29.51;32.29
8160;BME280;27404;52.398;9.646;2023-06-14T06:10:01;101186.66;;;30.58;31.70
8160;BME280;27404;52.398;9.646;2023-06-14T06:12:27;101188.72;;;30.73;31.46
8160;BME280;27404;52.398;9.646;2023-06-14T06:14:52;101196.28;;;30.28;31.62
8160;BME280;27404;52.398;9.646;2023-06-14T06:17:17;101193.88;;;31.16;30.99
8160;BME280;27404;52.398;9.646;2023-06-14T06:19:43;101200.97;;;31.26;31.43
8160;BME280;27404;52.398;9.646;2023-06-14T06:22:09;101195.00;;;30.54;31.09
8160;BME280;27404;52.398;9.646;2023-06-14T06:24:34;101203.31;;;33.33;29.09
8160;BME280;27404;52.398;9.646;2023-06-14T06:27:00;101207.06;;;34.52;26.72
8160;BME280;27404;52.398;9.646;2023-06-14T06:29:25;101207.28;;;34.70;26.55
8160;BME280;27404;52.398;9.646;2023-06-14T06:31:51;101200.97;;;33.62;27.41
8160;BME280;27404;52.398;9.646;2023-06-14T06:34:16;101217.44;;;33.29;27.29
8160;BME280;27404;52.398;9.646;2023-06-14T06:36:42;101206.34;;;30.01;31.73
8160;BME280;27404;52.398;9.646;2023-06-14T06:39:07;101210.00;;;31.31;30.03
8160;BME280;27404;52.398;9.646;2023-06-14T06:41:37;101206.94;;;32.44;28.51
8160;BME280;27404;52.398;9.646;2023-06-14T06:44:05;101204.63;;;31.42;28.64
8160;BME280;27404;52.398;9.646;2023-06-14T06:46:32;101210.59;;;30.93;30.23
8160;BME280;27404;52.398;9.646;2023-06-14T06:48:57;101217.56;;;31.27;29.47
8160;BME280;27404;52.398;9.646;2023-06-14T06:51:23;101213.38;;;30.07;30.60
8160;BME280;27404;52.398;9.646;2023-06-14T06:53:55;101221.53;;;28.03;32.94
8160;BME280;27404;52.398;9.646;2023-06-14T06:56:21;101230.97;;;27.99;34.24
8160;BME280;27404;52.398;9.646;2023-06-14T06:58:49;101225.81;;;27.79;35.39
8160;BME280;27404;52.398;9.646;2023-06-14T07:01:15;101224.81;;;29.49;32.89
8160;BME280;27404;52.398;9.646;2023-06-14T07:03:41;101229.06;;;30.21;32.59
8160;BME280;27404;52.398;9.646;2023-06-14T07:06:07;101222.78;;;29.87;32.32
8160;BME280;27404;52.398;9.646;2023-06-14T07:08:32;101225.03;;;29.81;32.26
8160;BME280;27404;52.398;9.646;2023-06-14T07:10:58;101222.69;;;29.00;34.05
8160;BME280;27404;52.398;9.646;2023-06-14T07:13:23;101239.13;;;28.98;33.74
8160;BME280;27404;52.398;9.646;2023-06-14T07:15:48;101225.44;;;29.21;33.09
8160;BME280;27404;52.398;9.646;2023-06-14T07:18:14;101230.88;;;29.38;32.19
8160;BME280;27404;52.398;9.646;2023-06-14T07:20:39;101232.09;;;29.62;32.36
8160;BME280;27404;52.398;9.646;2023-06-14T07:23:05;101238.97;;;30.14;31.80
8160;BME280;27404;52.398;9.646;2023-06-14T07:25:31;101235.53;;;26.52;35.38
8160;BME280;27404;52.398;9.646;2023-06-14T07:27:56;101230.38;;;26.01;37.94
8160;BME280;27404;52.398;9.646;2023-06-14T07:30:22;101230.09;;;26.64;37.11
8160;BME280;27404;52.398;9.646;2023-06-14T07:32:52;101226.47;;;26.81;35.00
8160;BME280;27404;52.398;9.646;2023-06-14T07:35:18;101223.41;;;28.20;33.50
8160;BME280;27404;52.398;9.646;2023-06-14T07:37:43;101221.38;;;28.00;34.84
8160;BME280;27404;52.398;9.646;2023-06-14T07:40:09;101228.63;;;28.31;34.15
8160;BME280;27404;52.398;9.646;2023-06-14T07:42:35;101231.91;;;28.12;34.75
8160;BME280;27404;52.398;9.646;2023-06-14T07:45:02;101226.28;;;27.82;35.06
8160;BME280;27404;52.398;9.646;2023-06-14T07:47:27;101229.56;;;27.15;36.34
8160;BME280;27404;52.398;9.646;2023-06-14T07:49:53;101225.59;;;25.12;39.44
8160;BME280;27404;52.398;9.646;2023-06-14T07:52:18;101223.09;;;24.42;40.94
8160;BME280;27404;52.398;9.646;2023-06-14T07:54:44;101222.19;;;23.26;43.92
8160;BME280;27404;52.398;9.646;2023-06-14T07:57:09;101220.38;;;23.16;45.80
8160;BME280;27404;52.398;9.646;2023-06-14T07:59:35;101224.25;;;22.30;48.04
8160;BME280;27404;52.398;9.646;2023-06-14T08:02:01;101218.13;;;22.52;47.53
8160;BME280;27404;52.398;9.646;2023-06-14T08:04:26;101222.00;;;22.32;47.67
8160;BME280;27404;52.398;9.646;2023-06-14T08:06:51;101208.47;;;22.06;49.51
8160;BME280;27404;52.398;9.646;2023-06-14T08:09:17;101225.03;;;22.36;48.80
8160;BME280;27404;52.398;9.646;2023-06-14T08:11:42;101217.03;;;22.10;49.37
8160;BME280;27404;52.398;9.646;2023-06-14T08:14:08;101224.06;;;22.45;50.79
8160;BME280;27404;52.398;9.646;2023-06-14T08:16:34;101221.13;;;22.17;51.31
8160;BME280;27404;52.398;9.646;2023-06-14T08:18:59;101221.41;;;22.16;51.83
8160;BME280;27404;52.398;9.646;2023-06-14T08:21:25;101231.13;;;22.18;52.29
8160;BME280;27404;52.398;9.646;2023-06-14T08:23:52;101225.25;;;22.20;53.42
8160;BME280;27404;52.398;9.646;2023-06-14T08:26:18;101215.56;;;21.74;52.61
8160;BME280;27404;52.398;9.646;2023-06-14T08:28:44;101225.59;;;21.45;56.27
8160;BME280;27404;52.398;9.646;2023-06-14T08:31:09;101224.59;;;21.60;54.98
8160;BME280;27404;52.398;9.646;2023-06-14T08:33:35;101229.97;;;22.44;53.26
8160;BME280;27404;52.398;9.646;2023-06-14T08:36:00;101225.41;;;22.67;53.32
8160;BME280;27404;52.398;9.646;2023-06-14T08:38:26;101222.97;;;21.84;54.34
8160;BME280;27404;52.398;9.646;2023-06-14T08:40:52;101232.59;;;21.43;56.73
8160;BME280;27404;52.398;9.646;2023-06-14T08:43:22;101226.66;;;21.98;55.81
8160;BME280;27404;52.398;9.646;2023-06-14T08:45:48;101222.91;;;22.66;55.57
8160;BME280;27404;52.398;9.646;2023-06-14T08:48:19;101218.53;;;22.78;54.72
8160;BME280;27404;52.398;9.646;2023-06-14T08:50:47;101221.47;;;21.92;55.05
8160;BME280;27404;52.398;9.646;2023-06-14T08:53:14;101220.13;;;21.65;55.32
8160;BME280;27404;52.398;9.646;2023-06-14T08:55:41;101214.91;;;21.34;60.92
8160;BME280;27404;52.398;9.646;2023-06-14T08:58:08;101209.94;;;21.98;59.34
8160;BME280;27404;52.398;9.646;2023-06-14T09:00:34;101218.94;;;22.53;58.48
8160;BME280;27404;52.398;9.646;2023-06-14T09:03:02;101212.59;;;22.66;57.97
8160;BME280;27404;52.398;9.646;2023-06-14T09:05:28;101225.00;;;22.74;57.45
8160;BME280;27404;52.398;9.646;2023-06-14T09:07:54;101219.88;;;22.48;55.00
8160;BME280;27404;52.398;9.646;2023-06-14T09:10:21;101228.72;;;22.31;54.83
8160;BME280;27404;52.398;9.646;2023-06-14T09:12:48;101226.25;;;22.29;57.48
8160;BME280;27404;52.398;9.646;2023-06-14T09:15:13;101229.69;;;22.59;52.45
8160;BME280;27404;52.398;9.646;2023-06-14T09:17:39;101226.97;;;22.73;52.20
8160;BME280;27404;52.398;9.646;2023-06-14T09:20:06;101226.50;;;22.85;51.77
8160;BME280;27404;52.398;9.646;2023-06-14T09:22:37;101228.31;;;22.76;54.60
8160;BME280;27404;52.398;9.646;2023-06-14T09:25:03;101231.03;;;22.24;51.88
8160;BME280;27404;52.398;9.646;2023-06-14T09:27:29;101221.84;;;22.42;54.35
8160;BME280;27404;52.398;9.646;2023-06-14T09:29:55;101228.94;;;22.73;52.40
8160;BME280;27404;52.398;9.646;2023-06-14T09:32:21;101230.38;;;23.03;51.58
8160;BME280;27404;52.398;9.646;2023-06-14T09:34:47;101231.19;;;23.51;50.87
8160;BME280;27404;52.398;9.646;2023-06-14T09:37:13;101236.56;;;23.61;49.84
8160;BME280;27404;52.398;9.646;2023-06-14T09:39:51;101230.53;;;22.41;49.27
8160;BME280;27404;52.398;9.646;2023-06-14T09:42:17;101229.16;;;22.76;49.22
8160;BME280;27404;52.398;9.646;2023-06-14T09:44:47;101222.25;;;22.55;50.27
8160;BME280;27404;52.398;9.646;2023-06-14T09:47:14;101233.47;;;22.69;50.94
8160;BME280;27404;52.398;9.646;2023-06-14T09:49:40;101235.66;;;23.19;48.99
8160;BME280;27404;52.398;9.646;2023-06-14T09:52:06;101229.34;;;23.74;48.88
8160;BME280;27404;52.398;9.646;2023-06-14T09:54:35;101219.00;;;23.61;47.34
8160;BME280;27404;52.398;9.646;2023-06-14T09:57:07;101223.91;;;23.92;48.44
8160;BME280;27404;52.398;9.646;2023-06-14T09:59:33;101223.28;;;23.95;47.41
8160;BME280;27404;52.398;9.646;2023-06-14T10:02:02;101223.72;;;23.88;47.90
8160;BME280;27404;52.398;9.646;2023-06-14T10:04:33;101226.81;;;23.87;47.22
8160;BME280;27404;52.398;9.646;2023-06-14T10:07:00;101222.38;;;24.14;48.10
8160;BME280;27404;52.398;9.646;2023-06-14T10:09:28;101218.25;;;24.11;48.68
8160;BME280;27404;52.398;9.646;2023-06-14T10:11:55;101220.53;;;23.81;47.39
8160;BME280;27404;52.398;9.646;2023-06-14T10:14:21;101198.31;;;23.76;48.62
8160;BME280;27404;52.398;9.646;2023-06-14T10:17:09;101216.91;;;23.94;49.85
8160;BME280;27404;52.398;9.646;2023-06-14T10:19:43;101212.97;;;24.09;48.60
8160;BME280;27404;52.398;9.646;2023-06-14T10:22:18;101206.31;;;24.19;48.81
8160;BME280;27404;52.398;9.646;2023-06-14T10:24:45;101206.19;;;24.24;49.65
8160;BME280;27404;52.398;9.646;2023-06-14T10:27:14;101206.16;;;24.38;48.46
8160;BME280;27404;52.398;9.646;2023-06-14T10:32:21;101210.81;;;24.66;46.58
8160;BME280;27404;52.398;9.646;2023-06-14T10:34:59;101197.50;;;24.72;46.12
8160;BME280;27404;52.398;9.646;2023-06-14T10:37:25;101195.91;;;25.02;49.04
8160;BME280;27404;52.398;9.646;2023-06-14T10:39:51;101197.66;;;25.21;47.80
8160;BME280;27404;52.398;9.646;2023-06-14T10:42:17;101204.38;;;25.11;45.50
8160;BME280;27404;52.398;9.646;2023-06-14T10:44:49;101205.00;;;25.08;46.55
8160;BME280;27404;52.398;9.646;2023-06-14T10:47:35;101203.44;;;24.93;45.93
8160;BME280;27404;52.398;9.646;2023-06-14T10:52:28;101206.81;;;24.21;46.82
8160;BME280;27404;52.398;9.646;2023-06-14T10:55:13;101197.09;;;23.68;46.52
8160;BME280;27404;52.398;9.646;2023-06-14T10:57:51;101193.84;;;23.75;49.15
8160;BME280;27404;52.398;9.646;2023-06-14T11:00:26;101192.09;;;24.07;50.01
8160;BME280;27404;52.398;9.646;2023-06-14T11:11:07;101188.91;;;24.22;46.43
8160;BME280;27404;52.398;9.646;2023-06-14T11:13:33;101192.81;;;23.99;48.14
8160;BME280;27404;52.398;9.646;2023-06-14T11:16:00;101192.84;;;24.21;47.13
8160;BME280;27404;52.398;9.646;2023-06-14T11:18:25;101191.47;;;23.82;48.00
8160;BME280;27404;52.398;9.646;2023-06-14T11:20:52;101198.34;;;23.48;48.18
8160;BME280;27404;52.398;9.646;2023-06-14T11:23:18;101194.19;;;23.45;48.28
8160;BME280;27404;52.398;9.646;2023-06-14T11:25:50;101192.53;;;23.72;48.79
8160;BME280;27404;52.398;9.646;2023-06-14T11:28:16;101184.34;;;24.04;48.82
8160;BME280;27404;52.398;9.646;2023-06-14T11:30:41;101181.56;;;24.27;47.56
8160;BME280;27404;52.398;9.646;2023-06-14T11:33:09;101182.38;;;23.90;48.46
8160;BME280;27404;52.398;9.646;2023-06-14T11:35:36;101183.50;;;24.03;49.36
8160;BME280;27404;52.398;9.646;2023-06-14T11:38:04;101180.22;;;24.24;47.79
8160;BME280;27404;52.398;9.646;2023-06-14T11:40:30;101176.75;;;24.87;47.14
8160;BME280;27404;52.398;9.646;2023-06-14T11:42:59;101176.09;;;24.90;45.67
8160;BME280;27404;52.398;9.646;2023-06-14T11:45:26;101177.72;;;25.13;44.85
8160;BME280;27404;52.398;9.646;2023-06-14T11:47:54;101172.19;;;24.68;44.78
8160;BME280;27404;52.398;9.646;2023-06-14T11:50:21;101166.59;;;24.68;45.56
8160;BME280;27404;52.398;9.646;2023-06-14T11:52:55;101167.34;;;25.14;45.35
8160;BME280;27404;52.398;9.646;2023-06-14T11:55:22;101172.94;;;24.60;45.60
8160;BME280;27404;52.398;9.646;2023-06-14T11:57:47;101165.25;;;23.69;46.16
8160;BME280;27404;52.398;9.646;2023-06-14T12:00:13;101169.81;;;24.16;49.23
8160;BME280;27404;52.398;9.646;2023-06-14T12:02:41;101172.19;;;24.68;46.46
8160;BME280;27404;52.398;9.646;2023-06-14T12:05:07;101166.63;;;24.99;46.47
8160;BME280;27404;52.398;9.646;2023-06-14T12:07:39;101165.19;;;24.57;46.35
8160;BME280;27404;52.398;9.646;2023-06-14T12:10:06;101158.41;;;24.49;46.93
8160;BME280;27404;52.398;9.646;2023-06-14T12:12:39;101159.84;;;24.23;46.75
8160;BME280;27404;52.398;9.646;2023-06-14T12:15:06;101156.81;;;24.34;46.61
8160;BME280;27404;52.398;9.646;2023-06-14T12:17:36;101155.06;;;24.01;47.36
8160;BME280;27404;52.398;9.646;2023-06-14T12:22:36;101147.63;;;24.88;47.36
8160;BME280;27404;52.398;9.646;2023-06-14T12:25:02;101152.28;;;25.33;45.50
8160;BME280;27404;52.398;9.646;2023-06-14T12:27:28;101146.31;;;25.75;45.78
8160;BME280;27404;52.398;9.646;2023-06-14T12:30:01;101140.91;;;25.87;45.09
8160;BME280;27404;52.398;9.646;2023-06-14T12:32:28;101154.94;;;26.22;43.98
8160;BME280;27404;52.398;9.646;2023-06-14T12:34:54;101140.09;;;26.30;45.03
8160;BME280;27404;52.398;9.646;2023-06-14T12:37:19;101148.16;;;26.06;45.70
8160;BME280;27404;52.398;9.646;2023-06-14T12:39:45;101139.50;;;25.49;44.42
8160;BME280;27404;52.398;9.646;2023-06-14T12:42:11;101138.94;;;25.29;44.95
8160;BME280;27404;52.398;9.646;2023-06-14T12:44:36;101152.81;;;25.43;46.70
8160;BME280;27404;52.398;9.646;2023-06-14T12:47:06;101152.41;;;24.64;47.41
8160;BME280;27404;52.398;9.646;2023-06-14T12:49:32;101152.91;;;24.66;48.27
8160;BME280;27404;52.398;9.646;2023-06-14T12:51:58;101155.16;;;24.33;49.28
8160;BME280;27404;52.398;9.646;2023-06-14T12:54:23;101143.78;;;23.92;49.85
8160;BME280;27404;52.398;9.646;2023-06-14T12:56:51;101138.25;;;23.78;49.77
8160;BME280;27404;52.398;9.646;2023-06-14T12:59:17;101138.53;;;23.77;52.32
8160;BME280;27404;52.398;9.646;2023-06-14T13:01:43;101140.44;;;23.26;52.28
8160;BME280;27404;52.398;9.646;2023-06-14T13:04:10;101137.72;;;22.92;53.13
8160;BME280;27404;52.398;9.646;2023-06-14T13:06:36;101136.00;;;23.25;52.36
8160;BME280;27404;52.398;9.646;2023-06-14T13:09:02;101132.03;;;23.67;54.02
8160;BME280;27404;52.398;9.646;2023-06-14T13:11:29;101129.09;;;23.87;50.11